createdAt,value
2022-12-24T00:01:55.647Z,0.90
2022-12-24T00:04:25.666Z,0.93
2022-12-24T00:06:53.948Z,0.93
2022-12-24T00:09:22.111Z,1.03
2022-12-24T00:11:50.256Z,1.13
2022-12-24T00:14:18.433Z,0.90
2022-12-24T00:16:46.845Z,1.00
2022-12-24T00:19:15.088Z,1.00
2022-12-24T00:21:44.762Z,0.93
2022-12-24T00:24:13.003Z,1.00
2022-12-24T00:26:41.130Z,0.97
2022-12-24T00:29:10.278Z,1.20
2022-12-24T00:31:38.879Z,1.03
2022-12-24T00:34:08.674Z,0.90
2022-12-24T00:36:36.867Z,0.90
2022-12-24T00:39:07.168Z,0.90
2022-12-24T00:41:35.320Z,1.17
2022-12-24T00:44:06.097Z,1.00
2022-12-24T00:46:35.724Z,0.80
2022-12-24T00:49:04.915Z,0.70
2022-12-24T00:51:34.219Z,1.00
2022-12-24T00:54:02.508Z,1.00
2022-12-24T00:56:33.070Z,0.73
2022-12-24T00:59:01.750Z,0.90
2022-12-24T01:01:30.462Z,0.97
2022-12-24T01:04:12.775Z,1.30
2022-12-24T01:06:41.184Z,1.17
2022-12-24T01:09:09.669Z,0.90
2022-12-24T01:11:39.382Z,1.20
2022-12-24T01:14:07.741Z,1.00
2022-12-24T01:16:38.207Z,1.20
2022-12-24T01:19:06.800Z,1.10
2022-12-24T01:21:35.573Z,1.00
2022-12-24T01:24:04.481Z,1.20
2022-12-24T01:26:32.715Z,1.20
2022-12-24T01:29:03.409Z,1.20
2022-12-24T01:31:31.647Z,0.80
2022-12-24T01:34:00.237Z,1.00
2022-12-24T01:36:28.846Z,1.10
2022-12-24T01:38:57.325Z,1.27
2022-12-24T01:41:43.932Z,0.93
2022-12-24T01:44:22.233Z,1.30
2022-12-24T01:46:55.090Z,1.07
2022-12-24T01:49:23.883Z,1.00
2022-12-24T01:51:56.112Z,1.10
2022-12-24T01:54:29.140Z,0.80
2022-12-24T01:57:02.557Z,0.83
2022-12-24T01:59:33.992Z,0.97
2022-12-24T02:02:03.269Z,0.87
2022-12-24T02:04:37.937Z,1.43
2022-12-24T02:07:06.415Z,0.90
2022-12-24T02:09:37.317Z,1.00
2022-12-24T02:12:07.245Z,0.70
2022-12-24T02:14:38.268Z,0.77
2022-12-24T02:17:14.759Z,1.67
2022-12-24T02:20:21.735Z,1.10
2022-12-24T02:23:20.252Z,0.97
2022-12-24T02:26:19.531Z,0.97
2022-12-24T02:29:20.683Z,0.83
2022-12-24T02:31:54.677Z,0.90
2022-12-24T02:34:29.619Z,1.30
2022-12-24T02:37:01.895Z,0.70
2022-12-24T02:39:36.413Z,1.07
2022-12-24T02:42:09.402Z,0.90
2022-12-24T02:44:43.614Z,0.63
2022-12-24T02:47:15.496Z,1.30
2022-12-24T02:49:46.463Z,0.90
2022-12-24T02:52:31.293Z,0.90
2022-12-24T02:55:02.844Z,0.90
2022-12-24T02:57:42.592Z,1.20
2022-12-24T03:00:13.641Z,0.97
2022-12-24T03:02:56.901Z,0.93
2022-12-24T03:05:34.617Z,1.00
2022-12-24T03:08:07.539Z,1.00
2022-12-24T03:10:42.519Z,1.10
2022-12-24T03:13:14.989Z,0.90
2022-12-24T03:15:45.029Z,1.20
2022-12-24T03:18:18.377Z,0.93
2022-12-24T03:20:50.445Z,0.90
2022-12-24T03:23:18.740Z,1.10
2022-12-24T03:25:47.987Z,1.30
2022-12-24T03:28:19.549Z,1.00
2022-12-24T03:30:50.201Z,1.50
2022-12-24T03:33:20.370Z,1.10
2022-12-24T03:35:49.583Z,1.20
2022-12-24T03:38:18.264Z,1.00
2022-12-24T03:40:46.644Z,1.83
2022-12-24T03:43:14.818Z,1.13
2022-12-24T03:45:43.457Z,1.27
2022-12-24T03:48:12.053Z,1.20
2022-12-24T03:50:41.673Z,1.00
2022-12-24T03:53:10.036Z,0.80
2022-12-24T03:55:40.426Z,1.30
2022-12-24T03:58:09.044Z,1.13
2022-12-24T04:00:37.459Z,1.20
2022-12-24T04:03:06.995Z,1.10
2022-12-24T04:05:35.324Z,1.03
2022-12-24T04:08:06.146Z,1.60
2022-12-24T04:10:34.805Z,1.00
2022-12-24T04:13:04.601Z,1.07
2022-12-24T04:15:32.857Z,1.20
2022-12-24T04:18:01.331Z,1.07
2022-12-24T04:20:30.567Z,1.00
2022-12-24T04:22:59.082Z,1.33
2022-12-24T04:25:28.830Z,1.20
2022-12-24T04:27:56.995Z,0.93
2022-12-24T04:30:25.656Z,1.10
2022-12-24T04:32:54.387Z,1.00
2022-12-24T04:35:22.788Z,0.90
2022-12-24T04:37:59.633Z,0.83
2022-12-24T04:40:43.669Z,1.20
2022-12-24T04:43:12.791Z,0.97
2022-12-24T04:45:41.821Z,0.90
2022-12-24T04:48:10.192Z,1.30
2022-12-24T04:50:38.566Z,1.07
2022-12-24T04:53:07.321Z,0.93
2022-12-24T04:55:37.112Z,1.27
2022-12-24T04:58:05.312Z,1.20
2022-12-24T05:00:33.622Z,0.97
2022-12-24T05:03:02.043Z,1.10
2022-12-24T05:05:31.662Z,0.80
2022-12-24T05:08:00.476Z,1.27
2022-12-24T05:10:29.008Z,1.20
2022-12-24T05:12:59.799Z,1.20
2022-12-24T05:15:28.367Z,1.47
2022-12-24T05:17:58.316Z,1.47
2022-12-24T05:20:26.558Z,1.60
2022-12-24T05:23:15.593Z,1.47
2022-12-24T05:26:01.356Z,1.63
2022-12-24T05:28:31.330Z,2.20
2022-12-24T05:30:59.727Z,2.00
2022-12-24T05:33:27.972Z,1.00
2022-12-24T05:35:56.220Z,1.23
2022-12-24T05:38:25.039Z,1.03
2022-12-24T05:40:53.285Z,0.80
2022-12-24T05:43:21.777Z,1.00
2022-12-24T05:45:52.286Z,1.07
2022-12-24T05:48:20.971Z,1.10
2022-12-24T05:50:50.001Z,1.43
2022-12-24T05:53:18.436Z,1.37
2022-12-24T05:55:47.017Z,0.87
2022-12-24T05:58:15.818Z,1.00
2022-12-24T06:00:51.034Z,1.10
2022-12-24T06:03:20.606Z,0.80
2022-12-24T06:08:45.344Z,0.70
2022-12-24T06:11:15.691Z,1.13
2022-12-24T06:13:44.840Z,0.70
2022-12-24T06:16:15.470Z,0.90
2022-12-24T06:18:46.656Z,1.00
2022-12-24T06:21:17.654Z,1.20
2022-12-24T06:23:47.057Z,1.37
2022-12-24T06:26:17.833Z,0.90
2022-12-24T06:28:46.684Z,1.10
2022-12-24T06:31:17.263Z,1.00
2022-12-24T06:33:47.149Z,1.17
2022-12-24T06:36:18.247Z,1.00
2022-12-24T06:38:46.620Z,1.20
2022-12-24T06:41:15.133Z,1.03
2022-12-24T06:43:46.480Z,1.10
2022-12-24T06:46:14.993Z,1.30
2022-12-24T06:48:44.061Z,1.23
2022-12-24T06:51:14.594Z,0.90
2022-12-24T06:53:52.882Z,0.90
2022-12-24T06:56:22.297Z,1.33
2022-12-24T06:58:50.897Z,1.20
2022-12-24T07:01:21.276Z,0.90
2022-12-24T07:03:50.039Z,0.90
2022-12-24T07:06:25.324Z,0.80
2022-12-24T07:08:53.704Z,0.90
2022-12-24T07:11:22.702Z,0.83
2022-12-24T07:13:51.069Z,0.87
2022-12-24T07:16:19.799Z,0.90
2022-12-24T07:18:48.153Z,1.10
2022-12-24T07:21:16.544Z,0.80
2022-12-24T07:23:46.182Z,0.80
2022-12-24T07:26:14.412Z,0.60
2022-12-24T07:28:42.780Z,0.60
2022-12-24T07:31:11.007Z,0.90
2022-12-24T07:33:39.577Z,1.07
2022-12-24T07:36:16.836Z,0.70
2022-12-24T07:38:46.938Z,0.63
2022-12-24T07:41:17.643Z,0.80
2022-12-24T07:43:46.401Z,1.00
2022-12-24T07:46:14.869Z,0.70
2022-12-24T07:48:58.915Z,0.93
2022-12-24T07:51:28.573Z,0.90
2022-12-24T07:53:58.497Z,1.00
2022-12-24T07:56:26.971Z,0.77
2022-12-24T07:58:55.302Z,1.10
2022-12-24T08:01:23.549Z,1.00
2022-12-24T08:03:54.816Z,0.90
2022-12-24T08:06:23.826Z,0.80
2022-12-24T08:08:52.268Z,1.10
2022-12-24T08:11:22.688Z,1.20
2022-12-24T08:13:51.293Z,1.10
2022-12-24T08:16:19.890Z,0.90
2022-12-24T08:18:48.533Z,0.90
2022-12-24T08:21:17.031Z,0.70
2022-12-24T08:23:45.665Z,0.90
2022-12-24T08:26:14.215Z,0.93
2022-12-24T08:28:44.683Z,0.90
2022-12-24T08:31:13.627Z,0.80
2022-12-24T08:33:41.868Z,1.10
2022-12-24T08:36:10.625Z,1.00
2022-12-24T08:38:39.340Z,0.93
2022-12-24T08:41:07.726Z,0.80
2022-12-24T08:43:36.017Z,0.70
2022-12-24T08:46:07.165Z,1.00
2022-12-24T08:48:35.864Z,0.73
2022-12-24T08:51:08.699Z,1.03
2022-12-24T08:53:37.177Z,0.93
2022-12-24T08:56:07.433Z,0.80
2022-12-24T08:58:36.056Z,0.90
2022-12-24T09:01:12.788Z,0.90
2022-12-24T09:03:41.588Z,1.10
2022-12-24T09:06:11.028Z,0.80
2022-12-24T09:08:39.626Z,1.00
2022-12-24T09:11:09.228Z,0.97
2022-12-24T09:13:37.947Z,1.37
2022-12-24T09:16:08.340Z,0.90
2022-12-24T09:18:37.162Z,0.73
2022-12-24T09:21:09.228Z,0.80
2022-12-24T09:29:35.693Z,0.90
2022-12-24T09:32:06.106Z,1.20
2022-12-24T09:34:34.272Z,0.90
2022-12-24T09:37:03.147Z,0.67
2022-12-24T09:39:31.311Z,1.13
2022-12-24T09:42:09.102Z,0.93
2022-12-24T09:44:45.424Z,1.00
2022-12-24T09:47:24.113Z,1.00
2022-12-24T09:49:56.648Z,0.97
2022-12-24T09:52:31.081Z,1.10
2022-12-24T09:55:06.731Z,0.90
2022-12-24T09:57:39.056Z,0.93
2022-12-24T10:00:17.955Z,1.10
2022-12-24T10:02:48.219Z,1.27
2022-12-24T10:05:19.564Z,1.10
2022-12-24T10:07:56.371Z,0.80
2022-12-24T10:10:38.366Z,1.07
2022-12-24T10:13:14.926Z,0.90
2022-12-24T10:15:51.431Z,0.90
2022-12-24T10:18:34.938Z,0.90
2022-12-24T10:21:12.311Z,1.53
2022-12-24T10:23:45.572Z,1.10
2022-12-24T10:26:19.467Z,1.20
2022-12-24T10:28:52.370Z,0.97
2022-12-24T10:31:22.082Z,1.00
2022-12-24T10:33:58.996Z,1.00
2022-12-24T10:36:30.396Z,1.60
2022-12-24T10:39:05.303Z,1.17
2022-12-24T10:41:36.369Z,1.10
2022-12-24T10:44:06.435Z,0.97
2022-12-24T10:46:39.091Z,0.83
2022-12-24T10:49:13.988Z,0.97
2022-12-24T10:51:47.591Z,1.00
2022-12-24T10:54:26.257Z,0.97
2022-12-24T10:56:59.816Z,1.00
2022-12-24T10:59:31.028Z,1.30
2022-12-24T11:02:00.923Z,0.70
2022-12-24T11:04:32.801Z,1.27
2022-12-24T11:07:06.668Z,1.07
2022-12-24T11:09:36.617Z,1.10
2022-12-24T11:12:15.034Z,0.70
2022-12-24T11:14:43.664Z,1.17
2022-12-24T11:17:22.610Z,1.10
2022-12-24T11:19:53.786Z,0.93
2022-12-24T11:22:25.649Z,1.37
2022-12-24T11:25:01.815Z,1.10
2022-12-24T11:27:33.920Z,0.90
2022-12-24T11:30:25.525Z,1.40
2022-12-24T11:33:19.138Z,0.87
2022-12-24T11:35:54.484Z,0.97
2022-12-24T11:38:26.337Z,1.13
2022-12-24T11:41:06.519Z,0.90
2022-12-24T11:43:48.082Z,1.10
2022-12-24T11:46:20.801Z,1.13
2022-12-24T11:48:52.124Z,1.37
2022-12-24T11:51:27.711Z,1.00
2022-12-24T11:54:03.537Z,1.10
2022-12-24T11:56:38.329Z,0.70
2022-12-24T11:59:17.190Z,1.20
2022-12-24T12:01:50.606Z,1.17
2022-12-24T12:04:22.293Z,1.00
2022-12-24T12:06:56.768Z,1.33
2022-12-24T12:09:29.470Z,1.30
2022-12-24T12:12:01.493Z,1.10
2022-12-24T12:14:34.185Z,1.00
2022-12-24T12:17:08.715Z,0.97
2022-12-24T12:19:43.956Z,1.03
2022-12-24T12:22:28.443Z,1.17
2022-12-24T12:25:01.719Z,0.80
2022-12-24T12:27:35.213Z,1.00
2022-12-24T12:30:05.683Z,1.17
2022-12-24T12:32:47.713Z,0.97
2022-12-24T12:35:36.229Z,0.93
2022-12-24T12:38:10.328Z,1.60
2022-12-24T12:41:02.686Z,0.90
2022-12-24T12:43:42.473Z,0.97
2022-12-24T12:46:28.806Z,1.00
2022-12-24T12:49:11.937Z,1.00
2022-12-24T12:51:46.378Z,0.80
2022-12-24T12:54:30.454Z,1.23
2022-12-24T12:57:06.074Z,1.60
2022-12-24T12:59:38.216Z,1.10
2022-12-24T13:02:24.144Z,1.50
2022-12-24T13:05:27.129Z,0.80
2022-12-24T13:08:28.301Z,1.47
2022-12-24T13:11:10.466Z,1.63
2022-12-24T13:14:05.717Z,0.97
2022-12-24T13:16:55.333Z,1.60
2022-12-24T13:19:47.500Z,1.20
2022-12-24T13:22:17.913Z,1.10
2022-12-24T13:24:52.388Z,1.03
2022-12-24T13:27:26.057Z,1.20
2022-12-24T13:29:56.973Z,1.17
2022-12-24T13:32:51.327Z,1.00
2022-12-24T13:35:38.275Z,1.00
2022-12-24T13:38:40.601Z,0.83
2022-12-24T13:41:58.155Z,0.80
2022-12-24T13:44:33.207Z,1.03
2022-12-24T13:47:25.420Z,1.23
2022-12-24T13:49:58.892Z,1.00
2022-12-24T13:52:30.260Z,1.73
2022-12-24T13:55:15.872Z,0.93
2022-12-24T13:57:49.297Z,1.10
2022-12-24T14:00:31.774Z,1.00
2022-12-24T14:03:05.158Z,2.17
2022-12-24T14:05:38.202Z,0.73
2022-12-24T14:08:10.543Z,1.07
2022-12-24T14:10:43.414Z,1.37
2022-12-24T14:13:45.153Z,1.30
2022-12-24T14:16:18.857Z,1.40
2022-12-24T14:18:50.960Z,1.60
2022-12-24T14:21:23.860Z,0.80
2022-12-24T14:23:56.271Z,1.40
2022-12-24T14:26:28.965Z,1.40
2022-12-24T14:29:01.374Z,1.47
2022-12-24T14:31:31.529Z,1.23
2022-12-24T14:34:11.111Z,1.40
2022-12-24T14:36:40.611Z,0.93
2022-12-24T14:39:12.785Z,1.50
2022-12-24T14:41:52.842Z,1.53
2022-12-24T14:44:35.616Z,1.30
2022-12-24T14:47:17.133Z,1.57
2022-12-24T14:50:02.389Z,1.20
2022-12-24T14:53:03.876Z,1.90
2022-12-24T14:55:31.602Z,1.60
2022-12-24T14:58:41.259Z,1.10
2022-12-24T15:01:22.680Z,1.33
2022-12-24T15:04:16.725Z,1.30
2022-12-24T15:06:49.520Z,1.40
2022-12-24T15:09:21.524Z,1.30
2022-12-24T15:11:52.656Z,1.20
2022-12-24T15:14:22.465Z,1.10
2022-12-24T15:16:55.697Z,1.10
2022-12-24T15:19:28.156Z,1.50
2022-12-24T15:21:57.121Z,1.17
2022-12-24T15:24:26.719Z,2.03
2022-12-24T15:26:55.832Z,1.30
2022-12-24T15:29:26.269Z,1.50
2022-12-24T15:31:56.949Z,1.77
2022-12-24T15:34:37.315Z,2.10
2022-12-24T15:37:08.638Z,1.00
2022-12-24T15:39:37.157Z,1.20
2022-12-24T15:42:18.734Z,1.37
2022-12-24T15:44:56.759Z,1.57
2022-12-24T15:47:37.736Z,1.77
2022-12-24T15:50:16.963Z,1.17
2022-12-24T15:52:46.380Z,0.80
2022-12-24T15:55:29.132Z,1.10
2022-12-24T15:57:58.045Z,1.40
2022-12-24T16:00:31.201Z,1.50
2022-12-24T16:03:12.153Z,1.60
2022-12-24T16:05:42.531Z,2.13
2022-12-24T16:08:30.299Z,0.87
2022-12-24T16:11:19.439Z,1.30
2022-12-24T16:14:09.015Z,1.10
2022-12-24T16:16:40.983Z,1.00
2022-12-24T16:19:18.012Z,1.10
2022-12-24T16:21:48.024Z,0.90
2022-12-24T16:24:19.399Z,0.90
2022-12-24T16:26:48.155Z,1.40
2022-12-24T16:29:19.740Z,1.27
2022-12-24T16:31:51.409Z,1.33
2022-12-24T16:34:20.742Z,1.20
2022-12-24T16:36:50.595Z,1.40
2022-12-24T16:39:24.236Z,1.20
2022-12-24T16:42:10.748Z,1.20
2022-12-24T16:44:39.000Z,1.17
2022-12-24T16:47:11.066Z,1.17
2022-12-24T16:49:40.114Z,1.67
2022-12-24T16:52:17.573Z,1.50
2022-12-24T16:54:46.821Z,1.50
2022-12-24T16:57:15.231Z,1.37
2022-12-24T16:59:43.717Z,1.40
2022-12-24T17:02:15.159Z,1.60
2022-12-24T17:04:44.025Z,2.00
2022-12-24T17:07:15.355Z,1.27
2022-12-24T17:09:43.732Z,1.67
2022-12-24T17:12:13.853Z,1.60
2022-12-24T17:14:43.151Z,1.70
2022-12-24T17:17:20.825Z,1.77
2022-12-24T17:19:49.506Z,2.00
2022-12-24T17:22:19.926Z,2.30
2022-12-24T17:24:48.547Z,1.70
2022-12-24T17:27:16.919Z,1.23
2022-12-24T17:29:45.174Z,1.43
2022-12-24T17:32:13.263Z,1.33
2022-12-24T17:34:41.397Z,1.90
2022-12-24T17:37:09.895Z,1.40
2022-12-24T17:39:39.903Z,1.67
2022-12-24T17:42:08.193Z,1.60
2022-12-24T17:44:36.896Z,1.30
2022-12-24T17:47:06.351Z,1.60
2022-12-24T17:49:35.089Z,1.60
2022-12-24T17:52:04.743Z,2.00
2022-12-24T17:54:33.166Z,2.13
2022-12-24T17:57:03.161Z,1.40
2022-12-24T17:59:31.581Z,1.63
2022-12-24T18:02:00.290Z,1.90
2022-12-24T18:04:28.768Z,1.70
2022-12-24T18:07:02.173Z,1.80
2022-12-24T18:09:31.691Z,1.63
2022-12-24T18:12:01.068Z,1.77
2022-12-24T18:14:31.196Z,1.70
2022-12-24T18:16:59.634Z,2.20
2022-12-24T18:19:28.104Z,2.20
2022-12-24T18:21:56.631Z,1.70
2022-12-24T18:24:34.430Z,2.00
2022-12-24T18:27:03.298Z,1.90
2022-12-24T18:29:33.365Z,2.40
2022-12-24T18:35:28.912Z,1.70
2022-12-24T18:40:54.568Z,1.83
2022-12-24T18:43:23.656Z,2.13
2022-12-24T18:45:54.261Z,2.20
2022-12-24T18:48:22.475Z,2.40
2022-12-24T18:50:59.462Z,3.03
2022-12-24T18:53:28.373Z,2.20
2022-12-24T18:56:05.132Z,2.10
2022-12-24T18:58:48.324Z,2.00
2022-12-24T19:01:21.415Z,2.03
2022-12-24T19:03:52.163Z,2.33
2022-12-24T19:06:30.491Z,2.00
2022-12-24T19:09:01.976Z,1.80
2022-12-24T19:11:34.969Z,2.37
2022-12-24T19:14:13.399Z,2.73
2022-12-24T19:16:44.575Z,3.27
2022-12-24T19:19:15.521Z,3.03
2022-12-24T19:21:44.963Z,3.07
2022-12-24T19:24:14.562Z,3.47
2022-12-24T19:26:43.387Z,3.30
2022-12-24T19:29:12.251Z,3.60
2022-12-24T19:31:40.803Z,3.50
2022-12-24T19:34:12.488Z,3.07
2022-12-24T19:36:58.414Z,3.20
2022-12-24T19:39:32.267Z,3.03
2022-12-24T19:44:58.994Z,2.37
2022-12-24T19:47:28.840Z,2.30
2022-12-24T19:50:01.445Z,2.90
2022-12-24T19:52:35.645Z,2.80
2022-12-24T19:55:04.122Z,2.70
2022-12-24T19:57:32.386Z,2.87
2022-12-24T20:03:14.474Z,2.63
2022-12-24T20:05:45.759Z,2.47
2022-12-24T20:08:17.085Z,2.77
2022-12-24T20:10:48.849Z,3.20
2022-12-24T20:13:17.321Z,3.33
2022-12-24T20:15:56.185Z,3.03
2022-12-24T20:18:24.313Z,3.10
2022-12-24T20:21:01.795Z,2.93
2022-12-24T20:23:37.435Z,3.27
2022-12-24T20:26:07.478Z,3.03
2022-12-24T20:31:32.166Z,3.97
2022-12-24T20:34:03.459Z,2.60
2022-12-24T20:36:56.178Z,2.53
2022-12-24T20:47:37.912Z,3.20
2022-12-24T20:50:17.437Z,2.50
2022-12-24T20:52:51.680Z,3.10
2022-12-24T20:55:21.420Z,3.03
2022-12-24T20:57:50.168Z,3.00
2022-12-24T21:00:30.783Z,3.80
2022-12-24T21:03:00.284Z,3.60
2022-12-24T21:05:35.207Z,3.80
2022-12-24T21:08:05.900Z,3.30
2022-12-24T21:10:34.616Z,3.27
2022-12-24T21:13:38.317Z,3.13
2022-12-24T21:16:08.111Z,3.53
2022-12-24T21:18:36.709Z,3.87
2022-12-24T21:21:05.027Z,3.47
2022-12-24T21:23:35.195Z,3.27
2022-12-24T21:26:05.627Z,3.30
2022-12-24T21:28:34.367Z,3.60
2022-12-24T21:31:13.496Z,2.73
2022-12-24T21:33:41.978Z,3.47
2022-12-24T21:36:13.205Z,3.17
2022-12-24T21:38:43.227Z,2.93
2022-12-24T21:41:13.433Z,3.47
2022-12-24T21:43:41.579Z,3.77
2022-12-24T21:46:10.754Z,3.23
2022-12-24T21:48:56.805Z,3.57
2022-12-24T21:51:26.311Z,3.27
2022-12-24T21:54:10.439Z,3.87
2022-12-24T21:56:52.530Z,3.60
2022-12-24T21:59:26.184Z,3.43
2022-12-24T22:01:55.910Z,3.13
2022-12-24T22:04:24.478Z,3.33
2022-12-24T22:07:10.222Z,2.90
2022-12-24T22:09:57.885Z,3.40
2022-12-24T22:12:26.036Z,2.87
2022-12-24T22:14:54.279Z,2.87
2022-12-24T22:17:25.419Z,3.27
2022-12-24T22:19:54.471Z,3.57
2022-12-24T22:22:23.041Z,3.43
2022-12-24T22:24:52.788Z,3.57
2022-12-24T22:27:20.869Z,3.40
2022-12-24T22:29:49.117Z,2.90
2022-12-24T22:32:17.188Z,3.20
2022-12-24T22:34:45.520Z,3.00
2022-12-24T22:37:13.834Z,3.40
2022-12-24T22:39:42.122Z,2.97
2022-12-24T22:42:11.665Z,3.00
2022-12-24T22:44:39.849Z,2.97
2022-12-24T22:47:08.075Z,3.13
2022-12-24T22:49:37.757Z,2.97
2022-12-24T22:52:06.055Z,3.00
2022-12-24T22:54:34.388Z,2.90
2022-12-24T22:57:02.673Z,2.70
2022-12-24T22:59:32.265Z,2.40
2022-12-24T23:02:00.649Z,2.73
2022-12-24T23:04:29.003Z,2.67
2022-12-24T23:06:57.420Z,2.50
2022-12-24T23:09:25.465Z,2.93
2022-12-24T23:11:54.097Z,3.17
2022-12-24T23:14:41.157Z,2.83
2022-12-24T23:17:11.553Z,2.30
2022-12-24T23:19:40.093Z,2.87
2022-12-24T23:22:08.576Z,2.63
2022-12-24T23:24:37.955Z,2.57
2022-12-24T23:27:06.706Z,2.50
2022-12-24T23:29:35.238Z,2.50
2022-12-24T23:32:03.865Z,2.50
2022-12-24T23:34:33.939Z,2.20
2022-12-24T23:37:02.077Z,2.60
2022-12-24T23:39:30.270Z,2.00
2022-12-24T23:41:58.436Z,2.20
2022-12-24T23:44:31.993Z,2.53
2022-12-24T23:47:00.931Z,2.70
2022-12-24T23:49:29.206Z,2.40
2022-12-24T23:51:58.894Z,2.37
2022-12-24T23:54:27.631Z,2.23
2022-12-24T23:56:55.747Z,2.60
2022-12-24T23:59:23.997Z,2.50
